Time;durP1;ratioP1;P1;durP2;ratioP2;P2;SDS_P1;SDS_P2;PMS_P1;PMS_P2;Temp;Humidity;BMP_temperature;BMP_pressure;BME280_temperature;BME280_humidity;BME280_pressure;Samples;Min_cycle;Max_cycle;Signal;HPM_P1;HPM_P2
2022/03/03 00:01:46;;;;;;;17.00;12.67;;;7.90;45.80;;;;;;5030213;28;20232;-45
2022/03/03 00:04:12;;;;;;;20.73;13.90;;;7.90;45.90;;;;;;5031517;28;20419;-45
2022/03/03 00:06:38;;;;;;;16.17;12.30;;;7.80;45.80;;;;;;5031826;28;20280;-47
2022/03/03 00:09:05;;;;;;;16.63;12.80;;;7.80;45.90;;;;;;5031011;28;20248;-44
2022/03/03 00:11:31;;;;;;;15.87;12.57;;;7.80;45.80;;;;;;5031480;28;20196;-49
2022/03/03 00:13:57;;;;;;;20.63;13.83;;;7.80;45.90;;;;;;5031395;28;20442;-45
2022/03/03 00:16:23;;;;;;;18.17;13.63;;;7.40;46.70;;;;;;5031795;28;20416;-44
2022/03/03 00:18:49;;;;;;;21.47;14.97;;;7.10;47.50;;;;;;5031218;28;20563;-45
2022/03/03 00:21:14;;;;;;;20.40;13.90;;;7.20;47.80;;;;;;5031387;28;20990;-46
2022/03/03 00:23:40;;;;;;;19.70;13.87;;;7.30;47.50;;;;;;5030906;28;20196;-45
2022/03/03 00:26:07;;;;;;;18.27;13.43;;;7.40;47.20;;;;;;5031770;28;20192;-44
2022/03/03 00:28:33;;;;;;;17.67;13.77;;;7.40;46.90;;;;;;5028578;28;20679;-45
2022/03/03 00:30:58;;;;;;;19.63;14.13;;;7.50;46.80;;;;;;5031315;28;20478;-46
2022/03/03 00:33:24;;;;;;;20.20;15.03;;;7.50;46.60;;;;;;5030797;28;20193;-44
2022/03/03 00:35:50;;;;;;;16.70;12.70;;;7.50;46.50;;;;;;5031114;28;20252;-44
2022/03/03 00:38:16;;;;;;;19.37;13.53;;;7.30;46.60;;;;;;5030192;28;20187;-45
2022/03/03 00:40:41;;;;;;;16.33;12.90;;;7.30;46.60;;;;;;5032721;28;20244;-44
2022/03/03 00:43:08;;;;;;;20.27;13.40;;;7.40;46.40;;;;;;5050128;28;20486;-44
2022/03/03 00:45:35;;;;;;;17.70;13.50;;;7.40;46.10;;;;;;5037270;28;20247;-44
2022/03/03 00:48:00;;;;;;;16.17;13.67;;;7.40;45.90;;;;;;5030171;28;20452;-47
2022/03/03 00:50:27;;;;;;;23.00;14.60;;;7.30;45.80;;;;;;5031005;28;20950;-45
2022/03/03 00:52:52;;;;;;;17.30;12.77;;;7.30;45.90;;;;;;5030502;28;20431;-44
2022/03/03 00:55:18;;;;;;;17.07;12.13;;;7.30;45.90;;;;;;5028961;28;20424;-44
2022/03/03 00:57:44;;;;;;;17.47;12.40;;;7.30;45.80;;;;;;5030162;28;20276;-47
2022/03/03 01:00:10;;;;;;;21.23;13.60;;;7.30;45.60;;;;;;5030230;28;20621;-46
2022/03/03 01:02:36;;;;;;;17.60;12.50;;;7.30;45.60;;;;;;5030631;28;20557;-44
2022/03/03 01:05:03;;;;;;;18.63;13.63;;;7.30;45.50;;;;;;5030166;28;20443;-46
2022/03/03 01:07:29;;;;;;;18.03;14.00;;;7.30;45.50;;;;;;5030234;28;20224;-47
2022/03/03 01:09:54;;;;;;;19.40;14.33;;;7.30;45.60;;;;;;5028773;28;20463;-46
2022/03/03 01:12:20;;;;;;;20.70;13.50;;;7.30;45.70;;;;;;5030848;28;20196;-47
2022/03/03 01:14:46;;;;;;;16.50;13.80;;;7.20;45.60;;;;;;5030048;28;20730;-46
2022/03/03 01:17:13;;;;;;;19.07;13.30;;;7.20;45.70;;;;;;5030334;28;20548;-47
2022/03/03 01:19:39;;;;;;;19.30;13.63;;;7.20;45.60;;;;;;5029488;28;20207;-46
2022/03/03 01:22:05;;;;;;;17.20;12.57;;;7.20;45.60;;;;;;5030101;28;20434;-48
2022/03/03 01:24:31;;;;;;;16.87;13.37;;;7.20;45.70;;;;;;5028858;28;20417;-44
2022/03/03 01:26:56;;;;;;;17.07;13.23;;;7.20;45.60;;;;;;5030385;28;20201;-45
2022/03/03 01:29:22;;;;;;;15.90;12.33;;;7.20;45.70;;;;;;5029819;28;20926;-47
2022/03/03 01:31:48;;;;;;;17.20;12.40;;;7.20;45.80;;;;;;5030615;28;20228;-45
2022/03/03 01:34:13;;;;;;;20.13;13.67;;;7.20;46.20;;;;;;5029827;28;20562;-44
2022/03/03 01:36:39;;;;;;;19.37;13.47;;;7.10;46.50;;;;;;5030651;28;20276;-45
2022/03/03 01:39:05;;;;;;;19.60;13.73;;;6.80;47.20;;;;;;5029371;28;20208;-44
2022/03/03 01:41:33;;;;;;;20.17;12.77;;;6.70;47.90;;;;;;5039557;28;20225;-45
2022/03/03 01:43:58;;;;;;;17.97;13.23;;;6.60;48.20;;;;;;5045259;28;20522;-46
2022/03/03 01:46:24;;;;;;;18.00;13.43;;;6.70;48.00;;;;;;5034623;28;20911;-45
2022/03/03 01:48:50;;;;;;;17.67;12.10;;;6.70;47.60;;;;;;5029180;28;20193;-46
2022/03/03 01:51:15;;;;;;;21.30;13.77;;;6.60;47.40;;;;;;5028696;28;20259;-45
2022/03/03 01:53:41;;;;;;;20.23;13.43;;;6.70;47.30;;;;;;5029786;28;20201;-44
2022/03/03 01:56:08;;;;;;;16.80;12.50;;;6.70;47.20;;;;;;5030188;28;20269;-44
2022/03/03 01:58:34;;;;;;;17.13;12.80;;;6.60;47.10;;;;;;5029149;28;20243;-45
2022/03/03 02:01:00;;;;;;;19.30;13.37;;;6.60;47.10;;;;;;5030296;28;20885;-45
2022/03/03 02:03:25;;;;;;;15.10;12.83;;;6.50;47.30;;;;;;5030023;28;20284;-49
2022/03/03 02:05:51;;;;;;;21.40;13.20;;;6.50;47.40;;;;;;5030083;28;20196;-44
2022/03/03 02:08:17;;;;;;;18.27;13.60;;;6.50;47.40;;;;;;5029071;28;20194;-46
2022/03/03 02:10:42;;;;;;;18.57;13.30;;;6.40;47.60;;;;;;5030458;28;20225;-44
2022/03/03 02:13:08;;;;;;;17.17;13.30;;;6.40;47.80;;;;;;5029591;28;20455;-45
2022/03/03 02:15:34;;;;;;;17.53;13.10;;;6.40;47.60;;;;;;5029905;28;20859;-46
2022/03/03 02:18:00;;;;;;;17.10;13.47;;;6.50;47.40;;;;;;5027463;28;20872;-47
2022/03/03 02:20:28;;;;;;;19.10;14.33;;;6.60;47.20;;;;;;5031354;28;20300;-47
2022/03/03 02:22:54;;;;;;;15.07;11.90;;;6.60;46.90;;;;;;5033168;28;20431;-44
2022/03/03 02:25:20;;;;;;;16.67;12.23;;;6.50;46.80;;;;;;5033469;28;20439;-44
2022/03/03 02:27:46;;;;;;;18.50;12.17;;;6.50;46.60;;;;;;5032567;28;20428;-45
2022/03/03 02:30:14;;;;;;;17.80;12.23;;;6.60;46.40;;;;;;5033352;28;20478;-44
2022/03/03 02:32:41;;;;;;;18.30;13.23;;;6.50;46.30;;;;;;5033165;28;20427;-45
2022/03/03 02:35:07;;;;;;;15.40;11.80;;;6.40;46.40;;;;;;5032927;28;20790;-46
2022/03/03 02:37:38;;;;;;;17.10;11.97;;;6.40;46.60;;;;;;5032919;28;20424;-47
2022/03/03 02:40:10;;;;;;;18.07;12.03;;;6.40;46.70;;;;;;5032583;28;20483;-47
2022/03/03 02:42:36;;;;;;;17.83;13.50;;;6.30;46.90;;;;;;5050804;28;20562;-44
2022/03/03 02:45:03;;;;;;;17.33;13.23;;;6.30;47.10;;;;;;5041221;28;20774;-46
2022/03/03 02:47:29;;;;;;;18.00;13.77;;;6.20;47.20;;;;;;5032781;28;20438;-46
2022/03/03 02:49:55;;;;;;;17.23;12.53;;;6.20;47.10;;;;;;5032489;28;20432;-44
2022/03/03 02:52:20;;;;;;;15.57;12.67;;;6.20;47.10;;;;;;5032575;28;20689;-47
2022/03/03 02:54:46;;;;;;;16.33;12.43;;;6.20;47.00;;;;;;5032361;28;20319;-47
2022/03/03 02:59:56;;;;;;;15.10;11.30;;;6.30;47.10;;;;;;5032485;28;20262;-45
2022/03/03 03:02:22;;;;;;;16.17;11.63;;;6.20;47.10;;;;;;5032548;28;20519;-45
2022/03/03 03:04:48;;;;;;;18.80;13.03;;;6.20;47.40;;;;;;5032240;28;20430;-45
2022/03/03 03:07:13;;;;;;;19.17;13.07;;;6.10;47.40;;;;;;5032704;28;20311;-48
2022/03/03 03:09:39;;;;;;;20.37;12.20;;;6.10;47.20;;;;;;5031651;28;20197;-47
2022/03/03 03:12:04;;;;;;;19.90;13.17;;;6.10;47.10;;;;;;5031087;28;20197;-49
2022/03/03 03:14:30;;;;;;;17.53;12.83;;;6.00;46.90;;;;;;5031610;28;20589;-44
2022/03/03 03:16:56;;;;;;;21.40;12.70;;;6.00;47.10;;;;;;5032715;28;20193;-45
2022/03/03 03:19:21;;;;;;;16.10;12.30;;;6.00;47.20;;;;;;5031489;28;20225;-44
2022/03/03 03:21:47;;;;;;;17.93;13.13;;;6.00;47.20;;;;;;5032323;28;20958;-45
2022/03/03 03:24:13;;;;;;;19.47;12.67;;;6.00;47.50;;;;;;5031635;28;20193;-45
2022/03/03 03:26:39;;;;;;;17.67;13.27;;;5.80;48.00;;;;;;5032226;28;20655;-45
2022/03/03 03:29:04;;;;;;;16.67;13.00;;;5.60;48.50;;;;;;5031237;28;20468;-46
2022/03/03 03:31:30;;;;;;;19.10;12.40;;;5.20;49.30;;;;;;5031018;28;20197;-47
2022/03/03 03:33:56;;;;;;;16.67;12.67;;;5.10;50.00;;;;;;5031425;28;20667;-46
2022/03/03 03:36:21;;;;;;;16.20;13.77;;;5.10;50.00;;;;;;5032386;28;20645;-44
2022/03/03 03:38:47;;;;;;;15.87;12.20;;;5.10;49.90;;;;;;5029480;28;20197;-44
2022/03/03 03:41:13;;;;;;;17.33;12.93;;;5.20;50.00;;;;;;5038048;28;20228;-47
2022/03/03 03:43:39;;;;;;;18.43;13.20;;;5.30;49.90;;;;;;5049342;28;20237;-47
2022/03/03 03:46:05;;;;;;;16.47;11.93;;;5.30;49.70;;;;;;5035868;28;20197;-45
2022/03/03 03:48:31;;;;;;;22.20;13.50;;;5.20;49.90;;;;;;5030636;28;20470;-44
2022/03/03 03:50:56;;;;;;;19.83;13.40;;;5.20;49.90;;;;;;5031909;28;20193;-46
2022/03/03 03:53:23;;;;;;;22.70;13.73;;;5.10;49.70;;;;;;5031272;28;20420;-45
2022/03/03 03:55:49;;;;;;;21.33;13.70;;;5.20;49.80;;;;;;5031433;28;20202;-44
2022/03/03 03:58:14;;;;;;;17.40;12.03;;;5.00;49.90;;;;;;5030594;28;20515;-48
2022/03/03 04:00:40;;;;;;;22.60;12.90;;;4.60;50.90;;;;;;5031332;28;20570;-46
2022/03/03 04:03:06;;;;;;;17.17;12.13;;;4.40;51.60;;;;;;5030889;28;20193;-44
2022/03/03 04:05:31;;;;;;;18.13;13.10;;;4.20;52.10;;;;;;5011863;28;20207;-46
2022/03/03 04:07:57;;;;;;;16.20;12.37;;;4.10;52.40;;;;;;5030484;28;20316;-46
2022/03/03 04:10:23;;;;;;;19.57;13.33;;;4.20;52.60;;;;;;5031991;28;20204;-44
2022/03/03 04:12:49;;;;;;;17.40;12.40;;;4.20;52.30;;;;;;5031364;28;20653;-47
2022/03/03 04:15:14;;;;;;;18.67;12.40;;;4.10;52.40;;;;;;5031526;28;20252;-47
2022/03/03 04:17:40;;;;;;;17.73;13.37;;;4.10;52.60;;;;;;5031175;28;20239;-45
2022/03/03 04:20:07;;;;;;;19.03;14.03;;;4.10;52.80;;;;;;5030884;28;20311;-44
2022/03/03 04:22:34;;;;;;;19.40;13.70;;;4.10;52.40;;;;;;5031305;28;20243;-44
2022/03/03 04:25:00;;;;;;;18.63;14.97;;;4.30;52.20;;;;;;5030634;28;20428;-47
2022/03/03 04:27:25;;;;;;;17.57;12.63;;;4.40;51.90;;;;;;5031227;28;20439;-48
2022/03/03 04:29:51;;;;;;;22.20;13.70;;;4.20;52.10;;;;;;5030815;28;20979;-44
2022/03/03 04:32:17;;;;;;;19.77;15.00;;;4.10;52.60;;;;;;5029535;28;20247;-48
2022/03/03 04:34:42;;;;;;;18.43;14.13;;;4.10;52.60;;;;;;5030532;28;20193;-46
2022/03/03 04:37:08;;;;;;;20.50;13.70;;;3.80;53.20;;;;;;5031199;28;20268;-47
2022/03/03 04:39:34;;;;;;;19.23;13.10;;;3.70;53.60;;;;;;5030254;28;20185;-48
2022/03/03 04:41:59;;;;;;;19.40;13.50;;;3.80;53.90;;;;;;5043331;28;20263;-48
2022/03/03 04:44:25;;;;;;;16.77;12.70;;;4.00;53.60;;;;;;5042418;28;20315;-46
2022/03/03 04:46:50;;;;;;;19.90;12.83;;;4.20;52.70;;;;;;5034801;28;20221;-47
2022/03/03 04:49:16;;;;;;;16.90;12.40;;;4.20;52.50;;;;;;5030171;28;20276;-48
2022/03/03 04:51:42;;;;;;;17.30;13.23;;;4.40;52.40;;;;;;5030821;28;20191;-47
2022/03/03 04:54:08;;;;;;;18.57;13.00;;;4.40;52.10;;;;;;5030535;28;20189;-51
2022/03/03 04:56:35;;;;;;;21.47;13.90;;;4.40;52.00;;;;;;5031101;28;20189;-45
2022/03/03 04:59:01;;;;;;;18.10;14.20;;;4.50;52.00;;;;;;5028938;28;20424;-46
2022/03/03 05:01:26;;;;;;;24.27;12.80;;;4.60;51.70;;;;;;5030277;28;20989;-47
2022/03/03 05:03:52;;;;;;;16.23;12.17;;;4.60;51.30;;;;;;5030388;28;20258;-48
2022/03/03 05:06:17;;;;;;;21.53;14.13;;;4.60;51.20;;;;;;5030865;28;20193;-50
2022/03/03 05:08:44;;;;;;;18.37;12.93;;;4.60;51.30;;;;;;5029905;28;20238;-47
2022/03/03 05:11:09;;;;;;;17.27;13.00;;;4.60;51.20;;;;;;5030645;28;20262;-47
2022/03/03 05:13:36;;;;;;;18.60;12.67;;;4.30;51.70;;;;;;5030611;28;20519;-49
2022/03/03 05:16:03;;;;;;;18.13;14.00;;;4.20;52.20;;;;;;5030877;28;20683;-51
2022/03/03 05:18:29;;;;;;;18.80;13.30;;;4.20;52.30;;;;;;5029645;28;20424;-46
2022/03/03 05:20:54;;;;;;;20.63;15.00;;;3.60;53.00;;;;;;5030794;28;20491;-47
2022/03/03 05:23:20;;;;;;;20.70;13.70;;;3.30;54.10;;;;;;5030229;28;20452;-49
2022/03/03 05:25:45;;;;;;;20.60;14.90;;;3.30;54.40;;;;;;5030264;28;20327;-47
2022/03/03 05:28:11;;;;;;;19.37;13.70;;;3.60;54.50;;;;;;5028581;28;20193;-47
2022/03/03 05:30:37;;;;;;;18.53;13.73;;;3.70;53.80;;;;;;5030527;28;20194;-49
2022/03/03 05:33:03;;;;;;;16.97;11.70;;;3.90;53.30;;;;;;5030013;28;20665;-50
2022/03/03 05:35:29;;;;;;;20.40;13.30;;;4.00;52.70;;;;;;5030400;28;20501;-46
2022/03/03 05:37:55;;;;;;;20.10;13.70;;;4.10;52.30;;;;;;5029759;28;20440;-50
2022/03/03 05:40:20;;;;;;;22.47;13.57;;;4.20;52.10;;;;;;5030064;28;20221;-48
2022/03/03 05:42:46;;;;;;;21.70;14.90;;;4.20;51.90;;;;;;5049342;28;20220;-47
2022/03/03 05:45:11;;;;;;;17.80;13.10;;;4.20;51.80;;;;;;5040083;28;20188;-50
2022/03/03 05:47:37;;;;;;;17.03;12.90;;;4.30;51.60;;;;;;5030217;28;20637;-48
2022/03/03 05:50:05;;;;;;;18.10;13.20;;;4.40;51.60;;;;;;5029611;28;20197;-47
2022/03/03 05:52:31;;;;;;;17.50;12.23;;;4.60;51.50;;;;;;5030223;28;20198;-49
2022/03/03 05:54:56;;;;;;;19.00;13.37;;;4.70;51.10;;;;;;5029041;28;20469;-47
2022/03/03 05:57:34;;;;;;;15.70;11.67;;;4.70;50.70;;;;;;5033699;28;20893;-48
2022/03/03 06:00:09;;;;;;;20.43;13.97;;;4.80;50.30;;;;;;5033177;28;20205;-51
2022/03/03 06:02:35;;;;;;;17.67;13.57;;;4.90;50.10;;;;;;5033944;28;20454;-49
2022/03/03 06:05:03;;;;;;;17.53;12.30;;;4.90;49.80;;;;;;5033334;28;20481;-45
2022/03/03 06:07:30;;;;;;;16.77;13.33;;;4.50;50.10;;;;;;5033389;28;20787;-50
2022/03/03 06:09:56;;;;;;;17.90;12.97;;;4.30;51.50;;;;;;5033313;28;20447;-49
2022/03/03 06:12:37;;;;;;;16.97;13.10;;;4.50;51.60;;;;;;5033665;28;20846;-50
2022/03/03 06:15:05;;;;;;;18.03;13.33;;;4.40;51.40;;;;;;5032893;28;20859;-49
2022/03/03 06:17:31;;;;;;;22.27;15.60;;;4.20;51.70;;;;;;5033275;28;20428;-48
2022/03/03 06:20:00;;;;;;;26.97;17.00;;;4.30;51.90;;;;;;5032764;28;20431;-50
2022/03/03 06:22:26;;;;;;;25.17;16.20;;;4.20;52.00;;;;;;5032464;28;20436;-49
2022/03/03 06:24:52;;;;;;;22.00;14.90;;;4.00;52.60;;;;;;5033012;28;20416;-47
2022/03/03 06:27:17;;;;;;;20.17;14.53;;;4.00;52.80;;;;;;5032998;28;20477;-44
2022/03/03 06:29:43;;;;;;;19.70;13.03;;;4.10;52.60;;;;;;5033018;28;20203;-48
2022/03/03 06:32:11;;;;;;;17.07;13.10;;;4.30;52.40;;;;;;5033268;28;20196;-47
2022/03/03 06:34:37;;;;;;;22.53;14.63;;;4.30;52.20;;;;;;5032522;28;20935;-44
2022/03/03 06:37:03;;;;;;;26.83;14.17;;;4.30;52.10;;;;;;5032970;28;20515;-48
2022/03/03 06:39:29;;;;;;;22.73;13.60;;;4.00;52.50;;;;;;5032604;28;20510;-47
2022/03/03 06:41:55;;;;;;;19.27;14.30;;;4.00;53.10;;;;;;5045032;28;20581;-44
2022/03/03 06:44:21;;;;;;;24.27;13.77;;;3.90;53.00;;;;;;5044854;28;20241;-48
2022/03/03 06:46:47;;;;;;;22.07;14.43;;;3.80;53.30;;;;;;5037073;28;20425;-48
2022/03/03 06:49:13;;;;;;;19.93;13.70;;;3.90;53.70;;;;;;5030471;28;20201;-46
2022/03/03 06:51:49;;;;;;;21.27;14.37;;;4.00;53.40;;;;;;5032932;28;20207;-50
2022/03/03 06:54:19;;;;;;;22.10;14.17;;;4.20;53.40;;;;;;5032626;28;20434;-46
2022/03/03 06:56:54;;;;;;;19.03;13.70;;;4.40;52.80;;;;;;5032798;28;20439;-48
2022/03/03 06:59:32;;;;;;;18.63;13.77;;;4.50;52.40;;;;;;5031672;28;20489;-48
2022/03/03 07:01:59;;;;;;;18.67;13.90;;;4.70;52.30;;;;;;5032721;28;20979;-49
2022/03/03 07:04:26;;;;;;;17.83;14.23;;;4.90;51.80;;;;;;5032216;28;20439;-49
2022/03/03 07:06:52;;;;;;;19.43;13.90;;;5.20;51.40;;;;;;5032667;28;20420;-49
2022/03/03 07:09:19;;;;;;;20.03;14.00;;;5.40;50.80;;;;;;5031938;28;20955;-44
2022/03/03 07:11:46;;;;;;;19.73;14.10;;;5.30;50.60;;;;;;5032588;28;20281;-46
2022/03/03 07:14:12;;;;;;;20.13;13.87;;;5.40;50.70;;;;;;5032259;28;20900;-44
2022/03/03 07:16:45;;;;;;;18.30;14.13;;;5.70;50.60;;;;;;5030788;28;20482;-46
2022/03/03 07:19:26;;;;;;;24.23;14.50;;;5.80;50.30;;;;;;5031435;28;20444;-48
2022/03/03 07:22:00;;;;;;;22.60;13.80;;;6.30;50.10;;;;;;5032458;28;20518;-45
2022/03/03 07:24:42;;;;;;;17.70;14.23;;;6.70;49.70;;;;;;5032136;28;20805;-45
2022/03/03 07:27:16;;;;;;;22.07;13.20;;;7.00;49.20;;;;;;5031895;28;20432;-45
2022/03/03 07:29:45;;;;;;;18.40;13.40;;;7.30;48.70;;;;;;5031823;28;20420;-46
2022/03/03 07:32:16;;;;;;;19.67;14.10;;;7.60;47.70;;;;;;5032398;28;20435;-45
2022/03/03 07:34:49;;;;;;;20.63;15.50;;;7.90;46.90;;;;;;5031910;28;20923;-46
2022/03/03 07:37:22;;;;;;;20.57;14.40;;;8.10;46.20;;;;;;5031706;28;20459;-44
2022/03/03 07:39:47;;;;;;;20.30;15.83;;;8.40;45.80;;;;;;5031437;28;20467;-50
2022/03/03 07:42:18;;;;;;;18.67;15.20;;;8.70;45.40;;;;;;5044229;28;20561;-50
2022/03/03 07:44:45;;;;;;;18.63;14.00;;;8.90;45.10;;;;;;5041879;28;20189;-45
2022/03/03 07:47:11;;;;;;;20.20;14.70;;;8.80;44.30;;;;;;5033818;28;20959;-49
2022/03/03 07:49:38;;;;;;;18.10;15.27;;;8.70;44.70;;;;;;5031504;28;20455;-45
2022/03/03 07:52:05;;;;;;;20.13;14.63;;;8.90;44.80;;;;;;5031647;28;20197;-50
2022/03/03 07:54:32;;;;;;;21.10;16.20;;;8.90;44.60;;;;;;5031283;28;20810;-47
2022/03/03 07:56:59;;;;;;;18.33;14.00;;;8.80;44.90;;;;;;5031693;28;20420;-49
2022/03/03 07:59:33;;;;;;;19.10;15.40;;;8.90;44.70;;;;;;5031463;28;20428;-45
2022/03/03 08:02:04;;;;;;;18.77;14.27;;;8.80;44.20;;;;;;5031611;28;20483;-44
2022/03/03 08:04:32;;;;;;;18.97;14.90;;;8.70;44.40;;;;;;5031250;28;20424;-47
2022/03/03 08:07:04;;;;;;;16.77;14.17;;;8.70;44.80;;;;;;5031352;28;20428;-49
2022/03/03 08:09:31;;;;;;;20.40;14.43;;;8.20;45.30;;;;;;5029411;28;20470;-48
2022/03/03 08:12:02;;;;;;;18.23;15.13;;;8.10;45.60;;;;;;5031913;28;20459;-47
2022/03/03 08:14:29;;;;;;;17.13;14.27;;;8.10;46.10;;;;;;5030929;28;20490;-46
2022/03/03 08:16:54;;;;;;;19.03;15.73;;;8.40;46.60;;;;;;5031149;28;20441;-47
2022/03/03 08:19:21;;;;;;;21.80;14.77;;;8.50;45.70;;;;;;5030534;28;20420;-45
2022/03/03 08:21:48;;;;;;;19.77;16.10;;;8.70;45.60;;;;;;5031311;28;20307;-46
2022/03/03 08:24:14;;;;;;;18.50;15.10;;;8.80;45.20;;;;;;5030747;28;20427;-47
2022/03/03 08:26:40;;;;;;;21.30;15.43;;;8.90;45.00;;;;;;5031462;28;20447;-48
2022/03/03 08:29:06;;;;;;;20.07;15.00;;;9.10;45.00;;;;;;5030564;28;20432;-47
2022/03/03 08:31:40;;;;;;;18.60;14.93;;;9.20;44.50;;;;;;5031250;28;20420;-46
2022/03/03 08:34:13;;;;;;;21.63;15.07;;;9.30;43.90;;;;;;5030667;28;20284;-44
2022/03/03 08:37:02;;;;;;;17.97;15.30;;;9.40;43.90;;;;;;5029255;28;20443;-50
2022/03/03 08:39:30;;;;;;;18.97;15.07;;;9.50;43.60;;;;;;5030843;28;20436;-46
2022/03/03 08:41:57;;;;;;;18.27;14.80;;;9.60;42.90;;;;;;5043426;28;20540;-44
2022/03/03 08:44:31;;;;;;;20.53;15.60;;;9.70;42.60;;;;;;5042962;28;20463;-46
2022/03/03 08:46:57;;;;;;;23.03;16.77;;;9.90;43.10;;;;;;5034430;28;20415;-49
2022/03/03 08:49:36;;;;;;;20.97;16.13;;;10.00;41.80;;;;;;5030811;28;20443;-44
2022/03/03 08:52:03;;;;;;;20.90;15.77;;;10.20;41.40;;;;;;5030821;28;20831;-49
2022/03/03 08:54:29;;;;;;;21.37;15.83;;;10.40;41.00;;;;;;5030272;28;20974;-46
2022/03/03 08:56:55;;;;;;;18.37;15.57;;;10.60;40.60;;;;;;5030347;28;20436;-49
2022/03/03 08:59:20;;;;;;;20.13;16.20;;;10.70;40.10;;;;;;5030280;28;20232;-46
2022/03/03 09:01:46;;;;;;;21.03;16.23;;;10.90;39.60;;;;;;5030892;28;20277;-46
2022/03/03 09:04:12;;;;;;;20.07;15.63;;;11.10;39.10;;;;;;5028475;28;20224;-47
2022/03/03 09:06:38;;;;;;;19.60;16.10;;;11.20;40.00;;;;;;5030767;28;20193;-45
2022/03/03 09:09:03;;;;;;;20.40;15.20;;;11.30;39.70;;;;;;5029649;28;20531;-47
2022/03/03 09:11:29;;;;;;;20.10;15.83;;;11.40;39.50;;;;;;5030588;28;20665;-47
2022/03/03 09:13:55;;;;;;;19.13;16.17;;;11.60;39.10;;;;;;5030353;28;20205;-49
2022/03/03 09:16:21;;;;;;;22.00;15.27;;;11.70;38.90;;;;;;5030300;28;20677;-46
2022/03/03 09:18:48;;;;;;;19.23;14.83;;;11.80;38.60;;;;;;5029431;28;20201;-45
2022/03/03 09:21:14;;;;;;;18.90;15.93;;;12.00;37.90;;;;;;5030375;28;20538;-48
2022/03/03 09:23:40;;;;;;;19.00;16.00;;;12.10;37.90;;;;;;5030061;28;20431;-47
2022/03/03 09:26:06;;;;;;;19.80;15.90;;;12.10;38.30;;;;;;5030884;28;20435;-46
2022/03/03 09:28:32;;;;;;;19.93;15.87;;;12.30;38.50;;;;;;5029720;28;20931;-48
2022/03/03 09:30:57;;;;;;;18.50;15.53;;;12.50;38.70;;;;;;5031497;28;20275;-47
2022/03/03 09:33:23;;;;;;;23.80;16.63;;;12.60;37.20;;;;;;5034488;28;20185;-47
2022/03/03 09:35:50;;;;;;;19.77;15.97;;;12.70;36.90;;;;;;5034513;28;20189;-48
2022/03/03 09:38:16;;;;;;;25.00;16.63;;;12.90;36.80;;;;;;5034009;28;20504;-51
2022/03/03 09:40:42;;;;;;;18.40;16.03;;;13.00;37.20;;;;;;5036908;28;20562;-47
2022/03/03 09:43:08;;;;;;;21.33;15.67;;;13.20;36.60;;;;;;5053787;28;21132;-50
2022/03/03 09:45:36;;;;;;;17.80;15.90;;;13.20;36.40;;;;;;5040711;28;20412;-51
2022/03/03 09:48:05;;;;;;;17.90;15.53;;;13.40;35.90;;;;;;5033680;28;20435;-50
2022/03/03 09:50:32;;;;;;;19.90;16.90;;;13.50;35.90;;;;;;5034348;28;20448;-50
2022/03/03 09:52:58;;;;;;;18.47;16.13;;;13.60;35.40;;;;;;5033977;28;20442;-49
2022/03/03 09:55:24;;;;;;;20.60;16.43;;;13.70;35.20;;;;;;5034169;28;20907;-45
2022/03/03 09:57:50;;;;;;;17.77;15.87;;;13.80;35.70;;;;;;5031701;28;20439;-49
2022/03/03 10:00:17;;;;;;;19.03;17.00;;;14.00;35.10;;;;;;5034310;28;20436;-48
2022/03/03 10:03:10;;;;;;;17.93;16.03;;;14.20;34.20;;;;;;5034140;28;20440;-48
2022/03/03 10:05:49;;;;;;;22.13;15.87;;;14.30;33.80;;;;;;5035645;28;20431;-48
2022/03/03 10:08:18;;;;;;;18.60;16.10;;;14.30;33.40;;;;;;5046631;28;20435;-46
2022/03/03 10:10:46;;;;;;;24.70;16.47;;;14.40;34.20;;;;;;5049247;28;20450;-45
2022/03/03 10:13:16;;;;;;;20.73;16.90;;;14.50;33.80;;;;;;5044124;28;20960;-46
2022/03/03 10:15:44;;;;;;;18.90;15.70;;;14.30;33.40;;;;;;5048336;28;20439;-46
2022/03/03 10:18:13;;;;;;;19.53;16.60;;;14.50;33.90;;;;;;5038757;28;20474;-48
2022/03/03 10:20:58;;;;;;;25.20;17.13;;;14.80;33.80;;;;;;5046245;28;20492;-45
2022/03/03 10:23:33;;;;;;;20.60;16.40;;;15.00;33.80;;;;;;5048519;28;20450;-46
2022/03/03 10:26:01;;;;;;;22.33;16.43;;;15.10;33.40;;;;;;5049827;28;20828;-47
2022/03/03 10:28:29;;;;;;;18.67;16.67;;;15.30;32.60;;;;;;5045004;28;20435;-45
2022/03/03 10:31:00;;;;;;;19.10;16.20;;;15.00;32.90;;;;;;5049281;28;21319;-46
2022/03/03 10:33:29;;;;;;;19.43;16.60;;;15.20;32.60;;;;;;5046473;28;20518;-51
2022/03/03 10:36:09;;;;;;;28.50;17.57;;;15.40;32.10;;;;;;5048698;28;20747;-46
2022/03/03 10:38:44;;;;;;;18.97;16.43;;;15.50;32.30;;;;;;5041276;28;20447;-46
2022/03/03 10:41:38;;;;;;;24.93;17.50;;;15.60;31.90;;;;;;5049021;28;20569;-47
2022/03/03 10:44:10;;;;;;;18.07;16.10;;;15.70;32.30;;;;;;5047833;28;20497;-47
2022/03/03 10:46:59;;;;;;;21.50;16.43;;;15.80;32.10;;;;;;5046723;28;20431;-47
2022/03/03 10:49:26;;;;;;;19.87;17.20;;;16.00;31.20;;;;;;5049282;28;20860;-46
2022/03/03 10:51:51;;;;;;;19.27;16.93;;;16.10;32.10;;;;;;5047827;28;20423;-46
2022/03/03 10:54:17;;;;;;;19.70;17.60;;;16.20;31.30;;;;;;5046589;28;21039;-45
2022/03/03 10:56:46;;;;;;;20.27;16.47;;;16.30;31.60;;;;;;5043369;28;20238;-45
2022/03/03 10:59:17;;;;;;;23.90;17.17;;;16.50;31.70;;;;;;5045453;28;20467;-47
2022/03/03 11:01:44;;;;;;;19.00;15.77;;;16.70;30.90;;;;;;5048999;28;20479;-52
2022/03/03 11:04:18;;;;;;;19.33;16.33;;;16.80;31.00;;;;;;5049343;28;20439;-46
2022/03/03 11:06:45;;;;;;;19.67;17.57;;;16.90;30.50;;;;;;5044165;28;20502;-50
2022/03/03 11:09:10;;;;;;;19.83;17.60;;;17.00;30.80;;;;;;5044926;28;20427;-49
2022/03/03 11:11:36;;;;;;;21.27;16.40;;;17.10;30.70;;;;;;5044972;28;20482;-43
2022/03/03 11:14:02;;;;;;;21.83;16.43;;;17.10;30.80;;;;;;5041085;28;20193;-43
2022/03/03 11:16:28;;;;;;;19.90;16.60;;;17.00;29.70;;;;;;5038439;28;20841;-48
2022/03/03 11:18:54;;;;;;;22.17;16.70;;;16.70;30.50;;;;;;5046600;28;20443;-48
2022/03/03 11:21:20;;;;;;;21.60;17.80;;;17.00;30.30;;;;;;5048411;28;20232;-45
2022/03/03 11:23:55;;;;;;;19.90;16.77;;;17.20;30.60;;;;;;5048876;28;20449;-47
2022/03/03 11:26:25;;;;;;;21.70;16.93;;;17.40;29.70;;;;;;5051347;28;20430;-47
2022/03/03 11:29:13;;;;;;;21.53;16.97;;;17.50;29.10;;;;;;5044244;28;20436;-45
2022/03/03 11:32:05;;;;;;;19.07;16.97;;;17.80;28.90;;;;;;5047688;28;20899;-44
2022/03/03 11:34:31;;;;;;;22.30;16.57;;;17.90;29.40;;;;;;5040704;28;20498;-49
2022/03/03 11:37:10;;;;;;;19.70;17.63;;;18.10;29.00;;;;;;5042749;28;20896;-49
2022/03/03 11:39:42;;;;;;;19.17;16.27;;;18.20;28.90;;;;;;5047314;28;20516;-45
2022/03/03 11:42:23;;;;;;;22.77;16.93;;;18.30;28.40;;;;;;5045205;28;20565;-46
2022/03/03 11:44:55;;;;;;;19.77;17.30;;;18.30;28.30;;;;;;5047183;28;20554;-47
2022/03/03 11:47:33;;;;;;;18.10;16.20;;;18.20;28.50;;;;;;5047878;28;20443;-47
2022/03/03 11:49:58;;;;;;;18.63;16.70;;;18.10;29.30;;;;;;5047586;28;20465;-44
2022/03/03 11:52:24;;;;;;;21.20;16.40;;;18.20;28.50;;;;;;5040903;28;20440;-43
2022/03/03 11:54:57;;;;;;;19.10;17.10;;;18.40;28.00;;;;;;5041340;28;20271;-44
2022/03/03 11:57:27;;;;;;;18.47;16.33;;;18.60;27.50;;;;;;5038039;28;20203;-47
2022/03/03 11:59:59;;;;;;;18.50;16.60;;;18.70;27.20;;;;;;5043614;28;20442;-46
2022/03/03 12:02:30;;;;;;;18.43;16.53;;;18.70;27.50;;;;;;5045649;28;20548;-47
2022/03/03 12:05:27;;;;;;;18.97;17.03;;;18.60;27.30;;;;;;5046423;28;20531;-44
2022/03/03 12:07:57;;;;;;;24.50;18.13;;;18.60;27.30;;;;;;5045832;28;20824;-45
2022/03/03 12:10:22;;;;;;;19.13;17.13;;;18.60;27.70;;;;;;5042674;28;20868;-45
2022/03/03 12:12:48;;;;;;;18.40;16.40;;;18.60;27.90;;;;;;5046577;28;20522;-47
2022/03/03 12:15:15;;;;;;;17.63;15.80;;;18.60;27.40;;;;;;5040788;28;20192;-50
2022/03/03 12:17:58;;;;;;;18.97;16.70;;;18.70;27.70;;;;;;5046684;28;20518;-45
2022/03/03 12:20:24;;;;;;;19.00;15.70;;;18.80;28.40;;;;;;5048882;28;20886;-48
2022/03/03 12:23:22;;;;;;;19.97;17.00;;;18.90;28.30;;;;;;5044811;28;20451;-47
2022/03/03 12:25:50;;;;;;;20.03;16.40;;;19.20;28.10;;;;;;5039059;28;20192;-44
2022/03/03 12:28:45;;;;;;;19.60;17.50;;;19.50;27.90;;;;;;5046947;28;20435;-45
2022/03/03 12:31:31;;;;;;;18.73;16.87;;;19.80;26.60;;;;;;5045110;28;20954;-47
2022/03/03 12:34:06;;;;;;;19.97;17.17;;;19.90;26.70;;;;;;5044410;28;20454;-47
2022/03/03 12:36:36;;;;;;;20.67;16.50;;;19.80;26.40;;;;;;5043858;28;20441;-45
2022/03/03 12:39:04;;;;;;;19.20;17.10;;;19.60;26.60;;;;;;5039532;28;20455;-46
2022/03/03 12:41:31;;;;;;;20.57;17.30;;;19.60;27.20;;;;;;5050027;28;20482;-46